createdAt,value
2018-04-26T00:00:41.306Z,51.60
2018-04-26T00:03:13.286Z,51.60
2018-04-26T00:05:43.568Z,52.10
2018-04-26T00:08:13.736Z,52.20
2018-04-26T00:10:43.293Z,52.00
2018-04-26T00:13:14.042Z,52.20
2018-04-26T00:15:44.351Z,52.20
2018-04-26T00:18:13.857Z,52.40
2018-04-26T00:20:43.345Z,53.30
2018-04-26T00:23:14.101Z,52.80
2018-04-26T00:25:43.568Z,52.80
2018-04-26T00:28:13.241Z,53.20
2018-04-26T00:30:44.849Z,54.40
2018-04-26T00:33:15.459Z,54.50
2018-04-26T00:35:45.365Z,54.50
2018-04-26T00:38:17.855Z,53.40
2018-04-26T00:40:47.456Z,53.40
2018-04-26T00:43:17.529Z,54.30
2018-04-26T00:45:47.622Z,54.30
2018-04-26T00:48:21.093Z,54.80
2018-04-26T00:50:50.864Z,54.70
2018-04-26T00:55:58.792Z,55.00
2018-04-26T00:58:28.257Z,55.00
2018-04-26T01:00:57.819Z,56.00
2018-04-26T01:03:27.762Z,55.60
2018-04-26T01:05:58.152Z,55.70
2018-04-26T01:08:27.782Z,55.60
2018-04-26T01:10:57.584Z,55.50
2018-04-26T01:13:27.183Z,55.80
2018-04-26T01:15:56.755Z,56.80
2018-04-26T01:18:26.323Z,57.00
2018-04-26T01:20:55.933Z,57.30
2018-04-26T01:23:26.182Z,57.10
2018-04-26T01:25:57.351Z,57.10
2018-04-26T01:28:27.716Z,56.60
2018-04-26T01:30:58.082Z,57.20
2018-04-26T01:33:29.301Z,57.00
2018-04-26T01:35:58.839Z,57.00
2018-04-26T01:38:28.577Z,57.60
2018-04-26T01:41:01.682Z,57.40
2018-04-26T01:43:31.508Z,58.10
2018-04-26T01:46:01.860Z,58.00
2018-04-26T01:48:32.184Z,58.00
2018-04-26T01:51:01.672Z,59.10
2018-04-26T01:53:31.979Z,58.10
2018-04-26T01:56:01.976Z,58.10
2018-04-26T01:58:31.542Z,58.40
2018-04-26T02:01:08.236Z,59.40
2018-04-26T02:03:38.887Z,58.40
2018-04-26T02:06:17.854Z,58.80
2018-04-26T02:08:48.537Z,59.00
2018-04-26T02:11:26.507Z,59.00
2018-04-26T02:13:56.007Z,60.40
2018-04-26T02:16:27.044Z,60.30
2018-04-26T02:18:56.634Z,60.50
2018-04-26T02:21:26.288Z,60.30
2018-04-26T02:23:57.351Z,60.50
2018-04-26T02:26:27.147Z,60.60
2018-04-26T02:28:56.700Z,61.10
2018-04-26T02:31:27.408Z,61.80
2018-04-26T02:33:56.879Z,61.80
2018-04-26T02:36:26.301Z,62.40
2018-04-26T02:38:56.043Z,59.90
2018-04-26T02:41:26.329Z,60.00
2018-04-26T02:44:01.653Z,60.00
2018-04-26T02:46:31.954Z,59.20
2018-04-26T02:49:01.596Z,60.50
2018-04-26T02:51:31.206Z,60.60
2018-04-26T02:54:01.342Z,61.10
2018-04-26T02:56:31.901Z,61.30
2018-04-26T02:59:01.554Z,61.60
2018-04-26T03:01:31.581Z,60.50
2018-04-26T03:04:01.293Z,59.80
2018-04-26T03:06:30.911Z,61.60
2018-04-26T03:09:01.283Z,60.40
2018-04-26T03:11:30.997Z,60.10
2018-04-26T03:14:00.957Z,59.70
2018-04-26T03:16:38.515Z,59.90
2018-04-26T03:19:08.466Z,60.30
2018-04-26T03:21:38.248Z,59.90
2018-04-26T03:24:15.367Z,60.30
2018-04-26T03:26:45.495Z,60.50
2018-04-26T03:29:16.087Z,60.80
2018-04-26T03:31:45.729Z,60.80
2018-04-26T03:34:16.677Z,60.30
2018-04-26T03:36:47.180Z,61.10
2018-04-26T03:39:17.775Z,61.60
2018-04-26T03:41:47.775Z,61.60
2018-04-26T03:44:17.460Z,61.20
2018-04-26T03:46:47.150Z,61.40
2018-04-26T03:49:16.687Z,61.40
2018-04-26T03:51:46.220Z,61.60
2018-04-26T03:54:16.398Z,61.80
2018-04-26T03:56:46.706Z,61.80
2018-04-26T03:59:16.282Z,61.80
2018-04-26T04:06:05.567Z,62.10
2018-04-26T04:08:50.908Z,62.10
2018-04-26T04:11:21.646Z,63.00
2018-04-26T04:13:53.746Z,62.90
2018-04-26T04:16:24.088Z,64.10
2018-04-26T04:18:53.594Z,64.10
2018-04-26T04:21:23.473Z,66.80
2018-04-26T04:23:53.218Z,71.30
2018-04-26T04:26:33.470Z,73.30
2018-04-26T04:29:03.077Z,73.40
2018-04-26T04:31:32.692Z,75.60
2018-04-26T04:34:02.230Z,76.90
2018-04-26T04:36:31.812Z,77.10
2018-04-26T04:39:02.678Z,75.70
2018-04-26T04:41:32.178Z,78.50
2018-04-26T04:44:02.748Z,77.20
2018-04-26T04:46:32.587Z,77.30
2018-04-26T04:49:02.074Z,77.50
2018-04-26T04:51:31.543Z,77.90
2018-04-26T04:54:02.196Z,79.80
2018-04-26T04:56:31.723Z,79.70
2018-04-26T04:59:01.218Z,80.40
2018-04-26T05:01:31.524Z,80.30
2018-04-26T05:04:01.835Z,79.10
2018-04-26T05:06:32.227Z,77.90
2018-04-26T05:09:02.940Z,77.70
2018-04-26T05:11:32.515Z,77.70
2018-04-26T05:14:02.129Z,78.20
2018-04-26T05:16:32.434Z,79.20
2018-04-26T05:19:01.919Z,79.00
2018-04-26T05:21:31.391Z,78.50
2018-04-26T05:24:02.501Z,79.10
2018-04-26T05:26:32.141Z,79.10
2018-04-26T05:29:02.761Z,78.00
2018-04-26T05:31:33.476Z,78.20
2018-04-26T05:34:03.008Z,78.80
2018-04-26T05:36:34.851Z,78.60
2018-04-26T05:39:25.684Z,78.50
2018-04-26T05:41:55.331Z,77.80
2018-04-26T05:45:23.329Z,78.80
2018-04-26T05:47:53.015Z,78.40
2018-04-26T05:50:26.992Z,78.20
2018-04-26T05:53:05.708Z,77.80
2018-04-26T05:55:46.757Z,75.90
2018-04-26T05:58:17.474Z,76.60
2018-04-26T06:00:48.616Z,75.30
2018-04-26T06:03:18.247Z,75.30
2018-04-26T06:05:48.394Z,73.40
2018-04-26T06:08:22.722Z,74.20
2018-04-26T06:10:54.437Z,70.60
2018-04-26T06:13:23.991Z,70.60
2018-04-26T06:15:53.740Z,71.80
2018-04-26T06:18:23.280Z,69.50
2018-04-26T06:20:53.149Z,68.00
2018-04-26T06:23:22.760Z,67.50
2018-04-26T06:25:52.328Z,69.70
2018-04-26T06:28:23.866Z,66.80
2018-04-26T06:30:53.540Z,66.80
2018-04-26T06:33:24.028Z,66.30
2018-04-26T06:35:55.225Z,67.10
2018-04-26T06:38:24.794Z,66.50
2018-04-26T06:40:54.641Z,66.40
2018-04-26T06:43:26.768Z,67.00
2018-04-26T06:45:56.443Z,66.10
2018-04-26T06:48:27.641Z,63.00
2018-04-26T06:50:57.325Z,63.00
2018-04-26T06:53:28.104Z,64.20
2018-04-26T06:55:57.727Z,64.20
2018-04-26T06:58:32.035Z,65.90
2018-04-26T07:01:02.112Z,62.60
2018-04-26T07:03:36.148Z,62.50
2018-04-26T07:06:06.623Z,61.40
2018-04-26T07:08:37.393Z,62.10
2018-04-26T07:11:15.055Z,62.00
2018-04-26T07:13:45.785Z,61.80
2018-04-26T07:16:16.325Z,60.60
2018-04-26T07:18:47.097Z,61.10
2018-04-26T07:21:18.069Z,61.10
2018-04-26T07:23:49.007Z,60.20
2018-04-26T07:26:23.054Z,60.60
2018-04-26T07:28:56.380Z,60.20
2018-04-26T07:31:30.959Z,59.90
2018-04-26T07:34:05.899Z,58.90
2018-04-26T07:36:40.407Z,58.80
2018-04-26T07:39:11.189Z,58.70
2018-04-26T07:41:42.473Z,58.80
2018-04-26T07:44:18.159Z,59.70
2018-04-26T07:46:55.650Z,59.70
2018-04-26T07:49:37.656Z,59.00
2018-04-26T07:55:32.441Z,56.90
2018-04-26T07:58:05.281Z,57.40
2018-04-26T08:00:37.193Z,57.40
2018-04-26T08:03:14.604Z,56.80
2018-04-26T08:05:52.011Z,56.90
2018-04-26T08:08:24.337Z,58.30
2018-04-26T08:10:55.123Z,55.50
2018-04-26T08:13:31.490Z,55.50
2018-04-26T08:16:07.469Z,53.80
2018-04-26T08:18:42.438Z,51.80
2018-04-26T08:21:20.157Z,53.20
2018-04-26T08:23:51.007Z,53.20
2018-04-26T08:26:28.609Z,51.80
2018-04-26T08:29:01.732Z,51.10
2018-04-26T08:31:34.333Z,51.40
2018-04-26T08:34:05.431Z,52.40
2018-04-26T08:36:37.428Z,52.30
2018-04-26T08:39:09.749Z,51.10
2018-04-26T08:41:47.013Z,49.10
2018-04-26T08:44:37.292Z,48.60
2018-04-26T08:47:09.221Z,49.80
2018-04-26T08:49:45.397Z,49.80
2018-04-26T08:52:15.362Z,50.90
2018-04-26T08:57:33.712Z,51.50
2018-04-26T09:00:11.341Z,51.40
2018-04-26T09:02:59.572Z,51.80
2018-04-26T09:05:40.184Z,51.40
2018-04-26T09:08:13.711Z,51.40
2018-04-26T09:10:53.943Z,52.60
2018-04-26T09:13:38.630Z,50.90
2018-04-26T09:16:10.983Z,50.50
2018-04-26T09:18:42.377Z,51.20
2018-04-26T09:21:15.846Z,52.40
2018-04-26T09:23:48.317Z,50.80
2018-04-26T09:26:20.446Z,49.10
2018-04-26T09:29:12.389Z,49.10
2018-04-26T09:31:42.921Z,49.20
2018-04-26T09:34:14.524Z,50.00
2018-04-26T09:36:45.448Z,50.20
2018-04-26T09:39:16.923Z,50.80
2018-04-26T09:41:46.842Z,50.30
2018-04-26T09:44:34.724Z,48.80
2018-04-26T09:47:14.981Z,48.80
2018-04-26T09:49:58.323Z,47.90
2018-04-26T09:52:29.572Z,46.20
2018-04-26T09:54:59.585Z,46.10
2018-04-26T09:57:29.482Z,46.60
2018-04-26T10:00:07.093Z,45.60
2018-04-26T10:05:30.143Z,46.20
2018-04-26T10:08:03.791Z,44.90
2018-04-26T10:10:49.204Z,45.30
2018-04-26T10:13:21.304Z,46.40
2018-04-26T10:15:53.518Z,46.30
2018-04-26T10:18:24.571Z,44.70
2018-04-26T10:21:03.340Z,47.90
2018-04-26T10:23:33.898Z,43.30
2018-04-26T10:26:10.154Z,43.30
2018-04-26T10:28:51.564Z,43.80
2018-04-26T10:31:21.954Z,43.00
2018-04-26T10:33:53.140Z,42.60
2018-04-26T10:36:28.377Z,43.70
2018-04-26T10:38:58.524Z,43.70
2018-04-26T10:41:30.588Z,45.60
2018-04-26T10:44:05.100Z,45.50
2018-04-26T10:46:44.268Z,45.50
2018-04-26T10:49:16.095Z,45.10
2018-04-26T10:52:18.940Z,44.90
2018-04-26T10:55:01.319Z,43.60
2018-04-26T10:57:39.613Z,45.20
2018-04-26T11:00:14.623Z,42.50
2018-04-26T11:05:51.233Z,41.80
2018-04-26T11:08:24.095Z,44.90
2018-04-26T11:11:02.629Z,44.70
2018-04-26T11:13:39.370Z,44.90
2018-04-26T11:16:11.928Z,44.90
2018-04-26T11:18:53.455Z,44.30
2018-04-26T11:21:29.634Z,41.50
2018-04-26T11:24:00.714Z,42.90
2018-04-26T11:29:26.085Z,41.20
2018-04-26T11:58:17.309Z,42.70
2018-04-26T12:01:03.286Z,41.20
2018-04-26T12:03:33.402Z,41.10
2018-04-26T12:19:15.981Z,39.20
2018-04-26T12:21:55.293Z,38.10
2018-04-26T12:24:54.754Z,38.10
2018-04-26T12:30:21.774Z,39.40
2018-04-26T12:33:20.194Z,40.60
2018-04-26T12:36:09.745Z,40.60
2018-04-26T12:41:55.073Z,41.60
2018-04-26T12:44:33.857Z,41.60
2018-04-26T12:47:14.838Z,39.40
2018-04-26T12:49:53.501Z,39.20
2018-04-26T12:52:57.501Z,39.30
2018-04-26T12:55:47.490Z,39.80
2018-04-26T12:58:57.654Z,39.80
2018-04-26T13:02:11.307Z,38.70
2018-04-26T13:04:59.932Z,37.90
2018-04-26T13:07:47.740Z,36.20
2018-04-26T13:14:06.227Z,32.00
2018-04-26T13:16:37.860Z,32.00
2018-04-26T13:21:43.866Z,30.40
2018-04-26T13:24:15.917Z,31.60
2018-04-26T13:26:46.499Z,31.70
2018-04-26T13:29:21.441Z,33.40
2018-04-26T13:31:58.230Z,34.00
2018-04-26T13:34:50.388Z,31.30
2018-04-26T13:37:33.852Z,31.30
2018-04-26T13:40:11.280Z,30.90
2018-04-26T13:42:51.489Z,31.60
2018-04-26T13:45:26.484Z,31.70
2018-04-26T13:48:36.192Z,31.90
2018-04-26T13:51:08.307Z,32.70
2018-04-26T13:53:53.674Z,32.40
2018-04-26T13:56:27.891Z,31.70
2018-04-26T13:58:58.795Z,31.40
2018-04-26T14:01:35.865Z,31.80
2018-04-26T14:04:17.604Z,33.70
2018-04-26T14:06:48.337Z,33.80
2018-04-26T14:09:27.922Z,34.50
2018-04-26T14:11:57.566Z,34.10
2018-04-26T14:14:29.937Z,35.30
2018-04-26T14:17:01.017Z,34.60
2018-04-26T14:19:40.090Z,34.50
2018-04-26T14:22:13.716Z,35.10
2018-04-26T14:24:51.560Z,32.90
2018-04-26T14:28:16.208Z,33.50
2018-04-26T14:32:59.883Z,33.40
2018-04-26T14:35:35.203Z,31.80
2018-04-26T14:41:33.073Z,33.00
2018-04-26T14:44:14.083Z,33.50
2018-04-26T14:47:13.666Z,35.00
2018-04-26T14:50:11.189Z,37.40
2018-04-26T14:56:46.774Z,41.00
2018-04-26T14:59:18.943Z,41.00
2018-04-26T15:01:56.944Z,42.00
2018-04-26T15:04:30.272Z,42.90
2018-04-26T15:07:13.007Z,48.10
2018-04-26T15:09:47.771Z,48.10
2018-04-26T15:12:18.759Z,50.00
2018-04-26T15:15:10.411Z,45.40
2018-04-26T15:18:27.300Z,45.40
2018-04-26T15:21:04.716Z,40.00
2018-04-26T15:23:37.199Z,39.80
2018-04-26T15:29:59.239Z,37.70
2018-04-26T15:32:39.299Z,37.50
2018-04-26T15:35:12.829Z,36.80
2018-04-26T15:38:01.639Z,37.60
2018-04-26T15:40:43.918Z,37.60
2018-04-26T15:43:16.107Z,38.60
2018-04-26T15:45:47.816Z,38.20
2018-04-26T15:48:18.619Z,38.20
2018-04-26T15:51:02.958Z,38.30
2018-04-26T15:56:19.609Z,35.90
2018-04-26T15:58:58.356Z,35.40
2018-04-26T16:01:39.668Z,35.80
2018-04-26T16:04:24.142Z,36.00
2018-04-26T16:07:20.385Z,38.50
2018-04-26T16:10:00.275Z,36.60
2018-04-26T16:12:47.810Z,36.60
2018-04-26T16:15:32.450Z,37.60
2018-04-26T16:18:45.206Z,35.90
2018-04-26T16:25:29.952Z,35.70
2018-04-26T16:28:10.871Z,35.70
2018-04-26T16:30:55.398Z,34.80
2018-04-26T16:33:53.204Z,35.50
2018-04-26T16:36:38.945Z,35.10
2018-04-26T16:39:10.412Z,35.80
2018-04-26T16:41:40.250Z,36.20
2018-04-26T16:44:11.023Z,37.80
2018-04-26T16:46:42.112Z,39.00
2018-04-26T16:49:12.325Z,38.30
2018-04-26T16:51:43.241Z,39.20
2018-04-26T16:54:14.480Z,40.00
2018-04-26T16:56:52.406Z,40.30
2018-04-26T16:59:22.091Z,40.30
2018-04-26T17:02:11.507Z,39.80
2018-04-26T17:04:42.735Z,38.30
2018-04-26T17:07:12.968Z,39.80
2018-04-26T17:09:43.765Z,38.80
2018-04-26T17:12:13.616Z,38.70
2018-04-26T17:14:44.749Z,39.30
2018-04-26T17:17:14.701Z,41.50
2018-04-26T17:19:47.126Z,41.40
2018-04-26T17:22:17.869Z,42.00
2018-04-26T17:24:49.197Z,42.20
2018-04-26T17:27:20.322Z,42.60
2018-04-26T17:29:50.462Z,42.00
2018-04-26T17:32:20.323Z,40.60
2018-04-26T17:34:50.644Z,41.80
2018-04-26T17:37:21.481Z,41.10
2018-04-26T17:39:52.680Z,41.40
2018-04-26T17:42:23.687Z,41.70
2018-04-26T17:44:54.516Z,41.40
2018-04-26T17:47:27.599Z,43.00
2018-04-26T17:52:36.689Z,43.20
2018-04-26T17:55:12.926Z,40.90
2018-04-26T17:57:58.143Z,41.40
2018-04-26T18:03:35.703Z,42.40
2018-04-26T18:06:45.757Z,43.70
2018-04-26T18:09:51.264Z,44.10
2018-04-26T18:12:49.071Z,44.10
2018-04-26T18:22:38.668Z,43.30
2018-04-26T18:28:59.106Z,43.40
2018-04-26T18:31:37.402Z,45.20
2018-04-26T18:34:07.585Z,43.00
2018-04-26T18:36:55.726Z,43.20
2018-04-26T18:42:12.290Z,43.20
2018-04-26T18:44:45.016Z,43.20
2018-04-26T18:47:15.078Z,43.80
2018-04-26T18:49:46.699Z,43.80
2018-04-26T19:03:06.948Z,45.40
2018-04-26T19:05:42.847Z,44.00
2018-04-26T19:11:40.784Z,46.90
2018-04-26T19:14:27.709Z,47.10
2018-04-26T19:17:04.925Z,46.80
2018-04-26T19:19:40.598Z,46.80
2018-04-26T19:22:48.945Z,46.90
2018-04-26T19:25:27.394Z,48.70
2018-04-26T19:28:09.700Z,49.40
2018-04-26T19:30:53.431Z,47.30
2018-04-26T19:33:30.281Z,47.30
2018-04-26T19:36:07.201Z,49.90
2018-04-26T19:38:46.459Z,49.80
2018-04-26T19:41:19.481Z,49.30
2018-04-26T19:44:09.359Z,49.30
2018-04-26T19:46:54.648Z,50.10
2018-04-26T19:49:40.336Z,49.00
2018-04-26T19:52:28.450Z,49.00
2018-04-26T19:55:12.074Z,50.40
2018-04-26T19:57:47.463Z,50.50
2018-04-26T20:01:02.060Z,50.30
2018-04-26T20:03:33.315Z,50.30
2018-04-26T20:06:05.472Z,50.40
2018-04-26T20:08:45.491Z,50.60
2018-04-26T20:11:24.426Z,50.90
2018-04-26T20:13:59.584Z,51.00
2018-04-26T20:16:57.144Z,51.00
2018-04-26T20:22:11.593Z,51.10
2018-04-26T20:24:53.829Z,51.60
2018-04-26T20:30:23.004Z,52.40
2018-04-26T20:36:53.648Z,52.40
2018-04-26T20:39:44.600Z,52.60
2018-04-26T20:42:19.910Z,52.60
2018-04-26T20:45:08.453Z,53.90
2018-04-26T20:47:42.091Z,52.80
2018-04-26T20:50:36.372Z,53.50
2018-04-26T20:53:29.548Z,53.20
2018-04-26T20:56:04.947Z,53.30
2018-04-26T20:58:45.393Z,53.00
2018-04-26T21:04:03.933Z,53.50
2018-04-26T21:06:45.041Z,53.50
2018-04-26T21:09:18.896Z,53.60
2018-04-26T21:11:54.693Z,53.50
2018-04-26T21:14:39.077Z,53.30
2018-04-26T21:17:39.213Z,53.20
2018-04-26T21:20:18.718Z,53.20
2018-04-26T21:23:13.903Z,53.00
2018-04-26T21:25:57.244Z,53.00
2018-04-26T21:28:37.610Z,53.00
2018-04-26T21:31:11.315Z,53.40
2018-04-26T21:33:48.349Z,53.50
2018-04-26T21:36:22.377Z,53.40
2018-04-26T21:39:49.656Z,53.60
2018-04-26T21:42:35.685Z,53.80
2018-04-26T21:45:10.105Z,53.90
2018-04-26T21:47:45.443Z,53.90
2018-04-26T21:50:34.365Z,53.90
2018-04-26T21:53:35.293Z,54.10
2018-04-26T21:56:23.155Z,54.00
2018-04-26T21:59:06.726Z,54.20
2018-04-26T22:01:43.990Z,54.40
2018-04-26T22:04:16.017Z,54.20
2018-04-26T22:06:51.305Z,54.20
2018-04-26T22:09:21.817Z,54.20
2018-04-26T22:12:29.268Z,54.50
2018-04-26T22:15:02.005Z,54.10
2018-04-26T22:17:34.303Z,54.50
2018-04-26T22:20:13.504Z,54.20
2018-04-26T22:22:51.224Z,53.70
2018-04-26T22:28:27.945Z,54.10
2018-04-26T22:31:04.680Z,53.90
2018-04-26T22:33:34.986Z,53.70
2018-04-26T22:36:14.725Z,54.30
2018-04-26T22:38:45.572Z,54.30
2018-04-26T22:41:18.860Z,54.00
2018-04-26T22:43:49.776Z,53.90
2018-04-26T22:46:27.183Z,54.70
2018-04-26T22:49:28.336Z,54.70
2018-04-26T22:52:10.782Z,54.80
2018-04-26T22:54:45.208Z,54.10
2018-04-26T22:57:15.761Z,55.50
2018-04-26T22:59:45.821Z,55.60
2018-04-26T23:02:15.694Z,54.60
2018-04-26T23:04:46.062Z,55.50
2018-04-26T23:07:15.544Z,55.20
2018-04-26T23:09:45.368Z,55.60
2018-04-26T23:12:16.066Z,56.20
2018-04-26T23:14:45.690Z,56.00
2018-04-26T23:17:15.813Z,56.40
2018-04-26T23:19:46.153Z,57.00
2018-04-26T23:22:16.484Z,56.90
2018-04-26T23:24:48.491Z,57.10
2018-04-26T23:27:18.136Z,57.50
2018-04-26T23:29:47.712Z,57.90
2018-04-26T23:32:18.864Z,58.60
2018-04-26T23:34:49.289Z,58.10
2018-04-26T23:37:19.773Z,57.90
2018-04-26T23:39:51.470Z,59.00
2018-04-26T23:42:29.375Z,59.00
2018-04-26T23:44:58.905Z,58.00
2018-04-26T23:47:28.542Z,58.80
2018-04-26T23:49:59.736Z,59.20
2018-04-26T23:52:29.721Z,59.10
2018-04-26T23:57:36.730Z,61.60
